createdAt,value
2024-03-26T00:00:24.287Z,23.4
2024-03-26T00:01:27.543Z,23.4
2024-03-26T00:02:36.801Z,23.39
2024-03-26T00:03:39.877Z,23.43
2024-03-26T00:04:43.082Z,23.42
2024-03-26T00:05:46.301Z,23.41
2024-03-26T00:06:49.534Z,23.4
2024-03-26T00:07:52.818Z,23.38
2024-03-26T00:08:57.955Z,23.38
2024-03-26T00:10:01.068Z,23.39
2024-03-26T00:11:04.291Z,23.39
2024-03-26T00:12:07.479Z,23.38
2024-03-26T00:13:10.750Z,23.37
2024-03-26T00:14:13.934Z,23.37
2024-03-26T00:15:17.152Z,23.37
2024-03-26T00:16:20.398Z,23.37
2024-03-26T00:17:23.549Z,23.37
2024-03-26T00:18:26.764Z,23.36
2024-03-26T00:19:30.015Z,23.36
2024-03-26T00:20:33.244Z,23.36
2024-03-26T00:21:36.440Z,23.36
2024-03-26T00:22:39.713Z,23.35
2024-03-26T00:23:42.968Z,23.35
2024-03-26T00:24:48.330Z,23.35
2024-03-26T00:25:51.510Z,23.37
2024-03-26T00:26:54.580Z,23.36
2024-03-26T00:27:57.776Z,23.36
2024-03-26T00:29:01.026Z,23.36
2024-03-26T00:30:05.774Z,23.35
2024-03-26T00:31:08.991Z,23.36
2024-03-26T00:32:12.149Z,23.36
2024-03-26T00:33:16.338Z,23.35
2024-03-26T00:34:19.534Z,23.34
2024-03-26T00:35:24.235Z,23.35
2024-03-26T00:36:27.445Z,23.35
2024-03-26T00:37:30.688Z,23.35
2024-03-26T00:38:33.956Z,23.35
2024-03-26T00:39:37.149Z,23.34
2024-03-26T00:40:40.337Z,23.34
2024-03-26T00:41:43.521Z,23.33
2024-03-26T00:42:46.894Z,23.34
2024-03-26T00:43:50.127Z,23.33
2024-03-26T00:44:53.273Z,23.33
2024-03-26T00:45:56.627Z,23.33
2024-03-26T00:46:59.827Z,23.32
2024-03-26T00:48:03.129Z,23.32
2024-03-26T00:49:06.451Z,23.32
2024-03-26T00:50:09.694Z,23.32
2024-03-26T00:51:12.911Z,23.32
2024-03-26T00:52:16.142Z,23.31
2024-03-26T00:53:19.442Z,23.32
2024-03-26T00:54:24.751Z,23.31
2024-03-26T00:55:30.702Z,23.34
2024-03-26T00:56:33.997Z,23.34
2024-03-26T00:57:37.171Z,23.34
2024-03-26T00:58:40.362Z,23.33
2024-03-26T00:59:45.683Z,23.32
2024-03-26T01:00:48.973Z,23.34
2024-03-26T01:01:52.136Z,23.33
2024-03-26T01:02:55.327Z,23.32
2024-03-26T01:03:58.475Z,23.31
2024-03-26T01:05:01.705Z,23.31
2024-03-26T01:06:04.986Z,23.31
2024-03-26T01:07:08.256Z,23.31
2024-03-26T01:08:12.361Z,23.3
2024-03-26T01:09:15.509Z,23.31
2024-03-26T01:10:18.698Z,23.31
2024-03-26T01:11:23.503Z,23.3
2024-03-26T01:12:26.681Z,23.31
2024-03-26T01:13:29.881Z,23.3
2024-03-26T01:14:33.127Z,23.3
2024-03-26T01:15:36.377Z,23.3
2024-03-26T01:16:39.610Z,23.3
2024-03-26T01:17:42.828Z,23.29
2024-03-26T01:18:46.158Z,23.29
2024-03-26T01:19:49.377Z,23.29
2024-03-26T01:20:52.619Z,23.29
2024-03-26T01:21:57.803Z,23.29
2024-03-26T01:23:01.037Z,23.3
2024-03-26T01:24:04.274Z,23.29
2024-03-26T01:25:07.560Z,23.29
2024-03-26T01:26:12.317Z,23.29
2024-03-26T01:27:15.466Z,23.3
2024-03-26T01:28:18.673Z,23.3
2024-03-26T01:29:23.363Z,23.29
2024-03-26T01:30:26.572Z,23.29
2024-03-26T01:31:29.778Z,23.29
2024-03-26T01:32:33.076Z,23.29
2024-03-26T01:33:36.652Z,23.29
2024-03-26T01:34:39.955Z,23.28
2024-03-26T01:35:43.205Z,23.28
2024-03-26T01:36:46.425Z,23.28
2024-03-26T01:37:49.686Z,23.27
2024-03-26T01:38:52.820Z,23.27
2024-03-26T01:39:55.878Z,23.27
2024-03-26T01:40:59.092Z,23.27
2024-03-26T01:42:04.332Z,23.27
2024-03-26T01:43:07.569Z,23.28
2024-03-26T01:44:10.781Z,23.28
2024-03-26T01:45:14.030Z,23.27
2024-03-26T01:46:17.269Z,23.27
2024-03-26T01:47:22.548Z,23.27
2024-03-26T01:48:25.782Z,23.28
2024-03-26T01:49:29.001Z,23.27
2024-03-26T01:50:32.276Z,23.27
2024-03-26T01:51:35.597Z,23.27
2024-03-26T01:52:38.854Z,23.27
2024-03-26T01:53:42.046Z,23.25
2024-03-26T01:54:45.338Z,23.26
2024-03-26T01:55:48.537Z,23.25
2024-03-26T01:56:51.794Z,23.25
2024-03-26T01:57:56.917Z,23.25
2024-03-26T01:59:00.105Z,23.26
2024-03-26T02:00:03.310Z,23.26
2024-03-26T02:01:06.565Z,23.25
2024-03-26T02:02:09.818Z,23.25
2024-03-26T02:03:13.016Z,23.25
2024-03-26T02:04:16.297Z,23.25
2024-03-26T02:05:19.501Z,23.24
2024-03-26T02:06:22.765Z,23.24
2024-03-26T02:07:25.973Z,23.24
2024-03-26T02:08:29.180Z,23.24
2024-03-26T02:09:32.445Z,23.24
2024-03-26T02:10:35.636Z,23.23
2024-03-26T02:11:38.851Z,23.23
2024-03-26T02:12:44.105Z,23.23
2024-03-26T02:13:47.309Z,23.24
2024-03-26T02:14:50.447Z,23.24
2024-03-26T02:15:53.549Z,23.24
2024-03-26T02:16:56.716Z,23.23
2024-03-26T02:17:59.951Z,23.23
2024-03-26T02:19:03.142Z,23.23
2024-03-26T02:20:06.351Z,23.23
2024-03-26T02:21:09.652Z,23.22
2024-03-26T02:22:12.842Z,23.23
2024-03-26T02:23:18.147Z,23.22
2024-03-26T02:24:21.300Z,23.23
2024-03-26T02:25:24.498Z,23.23
2024-03-26T02:26:27.763Z,23.23
2024-03-26T02:27:32.985Z,23.22
2024-03-26T02:28:36.148Z,23.23
2024-03-26T02:29:39.456Z,23.24
2024-03-26T02:30:42.754Z,23.23
2024-03-26T02:31:45.906Z,23.23
2024-03-26T02:32:49.178Z,23.23
2024-03-26T02:33:52.272Z,23.22
2024-03-26T02:34:57.886Z,23.22
2024-03-26T02:36:00.965Z,23.24
2024-03-26T02:37:04.235Z,23.23
2024-03-26T02:38:07.478Z,23.23
2024-03-26T02:39:10.669Z,23.23
2024-03-26T02:40:13.797Z,23.22
2024-03-26T02:41:17.066Z,23.22
2024-03-26T02:42:20.249Z,23.21
2024-03-26T02:43:25.454Z,23.21
2024-03-26T02:44:28.647Z,23.22
2024-03-26T02:45:31.820Z,23.21
2024-03-26T02:46:35.087Z,23.22
2024-03-26T02:47:40.332Z,23.21
2024-03-26T02:48:43.529Z,23.22
2024-03-26T02:49:48.252Z,23.21
2024-03-26T02:50:51.432Z,23.22
2024-03-26T02:51:54.553Z,23.21
2024-03-26T02:52:57.768Z,23.21
2024-03-26T02:54:01.063Z,23.21
2024-03-26T02:55:04.487Z,23.2
2024-03-26T02:56:07.680Z,23.2
2024-03-26T02:57:10.846Z,23.2
2024-03-26T02:58:14.001Z,23.2
2024-03-26T02:59:17.205Z,23.2
2024-03-26T03:00:20.383Z,23.19
2024-03-26T03:01:25.669Z,23.2
2024-03-26T03:02:28.774Z,23.2
2024-03-26T03:03:32.144Z,23.2
2024-03-26T03:04:37.405Z,23.2
2024-03-26T03:05:40.511Z,23.21
2024-03-26T03:06:43.760Z,23.21
2024-03-26T03:07:46.979Z,23.21
2024-03-26T03:08:50.225Z,23.19
2024-03-26T03:09:53.463Z,23.19
2024-03-26T03:10:56.709Z,23.19
2024-03-26T03:11:59.980Z,23.19
2024-03-26T03:13:03.239Z,23.19
2024-03-26T03:14:06.484Z,23.18
2024-03-26T03:15:09.709Z,23.18
2024-03-26T03:16:12.893Z,23.18
2024-03-26T03:17:16.156Z,23.18
2024-03-26T03:18:19.292Z,23.18
2024-03-26T03:19:22.517Z,23.17
2024-03-26T03:20:25.721Z,23.18
2024-03-26T03:21:29.048Z,23.17
2024-03-26T03:22:32.227Z,23.17
2024-03-26T03:23:35.405Z,23.17
2024-03-26T03:24:38.574Z,23.16
2024-03-26T03:25:41.822Z,23.16
2024-03-26T03:26:45.010Z,23.16
2024-03-26T03:27:48.217Z,23.16
2024-03-26T03:28:51.484Z,23.16
2024-03-26T03:29:54.699Z,23.16
2024-03-26T03:30:57.916Z,23.17
2024-03-26T03:32:01.228Z,23.16
2024-03-26T03:33:04.393Z,23.16
2024-03-26T03:34:07.646Z,23.17
2024-03-26T03:35:12.807Z,23.16
2024-03-26T03:36:16.059Z,23.17
2024-03-26T03:37:19.282Z,23.18
2024-03-26T03:38:22.553Z,23.16
2024-03-26T03:39:25.787Z,23.17
2024-03-26T03:40:29.034Z,23.17
2024-03-26T03:41:32.342Z,23.16
2024-03-26T03:42:35.550Z,23.16
2024-03-26T03:43:40.893Z,23.15
2024-03-26T03:44:44.078Z,23.16
2024-03-26T03:45:47.324Z,23.16
2024-03-26T03:46:50.552Z,23.16
2024-03-26T03:47:53.677Z,23.16
2024-03-26T03:48:56.923Z,23.16
2024-03-26T03:50:02.126Z,23.15
2024-03-26T03:51:05.385Z,23.16
2024-03-26T03:52:08.566Z,23.16
2024-03-26T03:53:11.737Z,23.15
2024-03-26T03:54:14.976Z,23.15
2024-03-26T03:55:18.167Z,23.14
2024-03-26T03:56:21.364Z,23.15
2024-03-26T03:57:24.546Z,23.14
2024-03-26T03:58:27.758Z,23.14
2024-03-26T03:59:31.002Z,23.14
2024-03-26T04:00:34.249Z,23.14
2024-03-26T04:01:37.463Z,23.13
2024-03-26T04:02:42.685Z,23.13
2024-03-26T04:03:45.887Z,23.14
2024-03-26T04:04:49.084Z,23.14
2024-03-26T04:05:52.208Z,23.14
2024-03-26T04:06:55.380Z,23.13
2024-03-26T04:07:58.662Z,23.13
2024-03-26T04:09:01.880Z,23.13
2024-03-26T04:10:05.154Z,23.13
2024-03-26T04:11:08.437Z,23.13
2024-03-26T04:12:11.616Z,23.12
2024-03-26T04:13:14.844Z,23.11
2024-03-26T04:14:19.568Z,23.12
2024-03-26T04:15:22.771Z,23.13
2024-03-26T04:16:26.015Z,23.12
2024-03-26T04:17:35.226Z,23.12
2024-03-26T04:18:38.291Z,23.16
2024-03-26T04:19:41.503Z,23.16
2024-03-26T04:20:44.799Z,23.15
2024-03-26T04:21:48.127Z,23.14
2024-03-26T04:22:51.323Z,23.13
2024-03-26T04:23:54.407Z,23.13
2024-03-26T04:24:57.626Z,23.12
2024-03-26T04:26:02.903Z,23.12
2024-03-26T04:27:07.670Z,23.14
2024-03-26T04:28:10.723Z,23.14
2024-03-26T04:29:13.929Z,23.14
2024-03-26T04:30:17.143Z,23.13
2024-03-26T04:31:20.323Z,23.12
2024-03-26T04:32:23.521Z,23.11
2024-03-26T04:33:26.729Z,23.11
2024-03-26T04:34:29.927Z,23.11
2024-03-26T04:35:34.655Z,23.1
2024-03-26T04:36:37.840Z,23.11
2024-03-26T04:37:41.124Z,23.12
2024-03-26T04:38:44.370Z,23.11
2024-03-26T04:39:47.609Z,23.11
2024-03-26T04:40:51.835Z,23.11
2024-03-26T04:41:54.920Z,23.11
2024-03-26T04:42:58.128Z,23.11
2024-03-26T04:44:01.472Z,23.11
2024-03-26T04:45:04.748Z,23.11
2024-03-26T04:46:08.012Z,23.1
2024-03-26T04:47:11.182Z,23.1
2024-03-26T04:48:14.371Z,23.1
2024-03-26T04:49:17.594Z,23.09
2024-03-26T04:50:20.834Z,23.09
2024-03-26T04:51:24.112Z,23.09
2024-03-26T04:52:27.288Z,23.08
2024-03-26T04:53:30.517Z,23.09
2024-03-26T04:54:33.814Z,23.09
2024-03-26T04:55:38.629Z,23.08
2024-03-26T04:56:41.867Z,23.09
2024-03-26T04:57:47.099Z,23.09
2024-03-26T04:58:50.279Z,23.1
2024-03-26T04:59:53.397Z,23.1
2024-03-26T05:00:58.104Z,23.09
2024-03-26T05:02:01.223Z,23.1
2024-03-26T05:03:04.502Z,23.09
2024-03-26T05:04:07.735Z,23.09
2024-03-26T05:05:10.856Z,23.09
2024-03-26T05:06:15.984Z,23.09
2024-03-26T05:07:19.242Z,23.1
2024-03-26T05:08:22.485Z,23.09
2024-03-26T05:09:25.675Z,23.09
2024-03-26T05:10:28.897Z,23.09
2024-03-26T05:11:32.107Z,23.08
2024-03-26T05:12:35.272Z,23.08
2024-03-26T05:13:38.496Z,23.08
2024-03-26T05:14:41.716Z,23.07
2024-03-26T05:15:44.895Z,23.07
2024-03-26T05:16:48.220Z,23.07
2024-03-26T05:17:51.523Z,23.07
2024-03-26T05:18:54.731Z,23.07
2024-03-26T05:19:57.925Z,23.07
2024-03-26T05:21:01.296Z,23.07
2024-03-26T05:22:04.549Z,23.07
2024-03-26T05:23:07.773Z,23.06
2024-03-26T05:24:11.024Z,23.06
2024-03-26T05:25:14.201Z,23.07
2024-03-26T05:26:17.483Z,23.06
2024-03-26T05:27:20.740Z,23.06
2024-03-26T05:28:23.970Z,23.06
2024-03-26T05:29:27.183Z,23.06
2024-03-26T05:30:30.407Z,23.06
2024-03-26T05:31:39.658Z,23.05
2024-03-26T05:32:42.806Z,23.1
2024-03-26T05:33:45.987Z,23.09
2024-03-26T05:34:49.175Z,23.09
2024-03-26T05:35:52.428Z,23.08
2024-03-26T05:36:55.687Z,23.08
2024-03-26T05:37:58.939Z,23.07
2024-03-26T05:39:02.186Z,23.07
2024-03-26T05:40:05.467Z,23.07
2024-03-26T05:41:10.626Z,23.06
2024-03-26T05:42:13.746Z,23.07
2024-03-26T05:43:16.984Z,23.06
2024-03-26T05:44:20.224Z,23.06
2024-03-26T05:45:23.384Z,23.06
2024-03-26T05:46:26.628Z,23.05
2024-03-26T05:47:29.883Z,23.05
2024-03-26T05:48:33.191Z,23.05
2024-03-26T05:49:36.424Z,23.05
2024-03-26T05:50:41.626Z,23.05
2024-03-26T05:51:44.779Z,23.05
2024-03-26T05:52:48.048Z,23.06
2024-03-26T05:53:51.123Z,23.06
2024-03-26T05:54:54.372Z,23.06
2024-03-26T05:55:57.623Z,23.05
2024-03-26T05:57:00.835Z,23.04
2024-03-26T05:58:04.116Z,23.05
2024-03-26T05:59:07.353Z,23.04
2024-03-26T06:00:10.535Z,23.04
2024-03-26T06:01:13.629Z,23.04
2024-03-26T06:02:16.879Z,23.04
2024-03-26T06:03:20.152Z,23.04
2024-03-26T06:04:23.389Z,23.03
2024-03-26T06:05:26.595Z,23.04
2024-03-26T06:06:29.879Z,23.04
2024-03-26T06:07:33.111Z,23.04
2024-03-26T06:08:36.324Z,23.04
2024-03-26T06:09:39.554Z,23.03
2024-03-26T06:10:42.885Z,23.03
2024-03-26T06:11:46.143Z,23.04
2024-03-26T06:12:51.367Z,23.03
2024-03-26T06:13:54.532Z,23.04
2024-03-26T06:14:57.751Z,23.04
2024-03-26T06:16:00.974Z,23.04
2024-03-26T06:17:04.150Z,23.03
2024-03-26T06:18:09.383Z,23.03
2024-03-26T06:19:12.458Z,23.04
2024-03-26T06:20:15.669Z,23.04
2024-03-26T06:21:18.870Z,23.04
2024-03-26T06:22:24.108Z,23.04
2024-03-26T06:23:27.307Z,23.05
2024-03-26T06:24:30.572Z,23.05
2024-03-26T06:25:33.741Z,23.04
2024-03-26T06:26:36.964Z,23.03
2024-03-26T06:27:42.205Z,23.03
2024-03-26T06:28:45.396Z,23.04
2024-03-26T06:29:48.658Z,23.04
2024-03-26T06:30:51.804Z,23.04
2024-03-26T06:31:54.976Z,23.03
2024-03-26T06:32:58.256Z,23.03
2024-03-26T06:34:03.525Z,23.03
2024-03-26T06:35:06.717Z,23.04
2024-03-26T06:36:09.939Z,23.04
2024-03-26T06:37:13.149Z,23.04
2024-03-26T06:38:16.346Z,23.02
2024-03-26T06:39:19.605Z,23.02
2024-03-26T06:40:22.890Z,23.02
2024-03-26T06:41:26.143Z,23.02
2024-03-26T06:42:29.405Z,23.02
2024-03-26T06:43:32.632Z,23.02
2024-03-26T06:44:36.940Z,23.01
2024-03-26T06:45:40.231Z,23.02
2024-03-26T06:46:43.452Z,23.02
2024-03-26T06:47:46.620Z,23.02
2024-03-26T06:48:49.866Z,23.02
2024-03-26T06:49:53.000Z,23.01
2024-03-26T06:50:56.179Z,23.01
2024-03-26T06:51:59.578Z,23.01
2024-03-26T06:53:02.796Z,23.01
2024-03-26T06:54:06.077Z,23.01
2024-03-26T06:55:09.290Z,23.01
2024-03-26T06:56:12.568Z,23.01
2024-03-26T06:57:17.772Z,23.01
2024-03-26T06:58:20.983Z,23.02
2024-03-26T06:59:24.210Z,23.02
2024-03-26T07:00:27.433Z,23.02
2024-03-26T07:01:30.870Z,23.02
2024-03-26T07:02:34.077Z,23.01
2024-03-26T07:03:37.280Z,23.01
2024-03-26T07:04:40.448Z,23
2024-03-26T07:05:43.631Z,23
2024-03-26T07:06:46.816Z,23
2024-03-26T07:07:50.086Z,23.01
2024-03-26T07:08:53.305Z,23
2024-03-26T07:09:56.656Z,23.01
2024-03-26T07:10:59.902Z,23
2024-03-26T07:12:03.157Z,23
2024-03-26T07:13:06.400Z,23
2024-03-26T07:14:09.560Z,23
2024-03-26T07:15:12.773Z,23
2024-03-26T07:16:16.082Z,23
2024-03-26T07:17:19.355Z,23
2024-03-26T07:18:22.583Z,22.99
2024-03-26T07:19:25.794Z,23
2024-03-26T07:20:29.017Z,23
2024-03-26T07:21:32.231Z,23
2024-03-26T07:22:35.552Z,22.99
2024-03-26T07:23:38.823Z,23
2024-03-26T07:24:42.003Z,22.99
2024-03-26T07:25:45.240Z,23
2024-03-26T07:26:48.433Z,22.99
2024-03-26T07:27:51.573Z,22.99
2024-03-26T07:28:54.682Z,22.99
2024-03-26T07:29:57.865Z,22.99
2024-03-26T07:31:01.073Z,22.99
2024-03-26T07:32:04.334Z,22.99
2024-03-26T07:33:07.636Z,22.99
2024-03-26T07:34:12.791Z,22.98
2024-03-26T07:35:15.990Z,23
2024-03-26T07:36:19.257Z,23
2024-03-26T07:37:24.489Z,23
2024-03-26T07:38:27.664Z,23.01
2024-03-26T07:39:30.976Z,23
2024-03-26T07:40:34.275Z,23
2024-03-26T07:41:37.584Z,22.99
2024-03-26T07:42:40.933Z,23
2024-03-26T07:43:44.180Z,23
2024-03-26T07:44:47.391Z,23
2024-03-26T07:45:50.647Z,22.99
2024-03-26T07:46:53.765Z,22.99
2024-03-26T07:47:57.091Z,22.98
2024-03-26T07:49:00.534Z,22.98
2024-03-26T07:50:03.983Z,22.99
2024-03-26T07:51:07.328Z,22.98
2024-03-26T07:52:10.648Z,22.99
2024-03-26T07:53:13.994Z,22.98
2024-03-26T07:54:17.387Z,22.98
2024-03-26T07:55:20.809Z,22.98
2024-03-26T07:56:23.997Z,22.98
2024-03-26T07:57:27.288Z,22.98
2024-03-26T07:58:30.724Z,22.98
2024-03-26T07:59:34.075Z,22.99
2024-03-26T08:00:37.474Z,22.98
2024-03-26T08:01:40.955Z,22.98
2024-03-26T08:02:44.352Z,22.98
2024-03-26T08:03:47.587Z,22.98
2024-03-26T08:04:52.787Z,22.98
2024-03-26T08:05:56.039Z,22.99
2024-03-26T08:06:59.304Z,22.99
2024-03-26T08:08:02.590Z,22.99
2024-03-26T08:09:05.797Z,22.98
2024-03-26T08:10:08.949Z,22.98
2024-03-26T08:11:12.379Z,22.98
2024-03-26T08:12:15.667Z,22.97
2024-03-26T08:13:18.853Z,22.97
2024-03-26T08:14:24.056Z,22.97
2024-03-26T08:15:27.221Z,22.98
2024-03-26T08:16:30.536Z,22.98
2024-03-26T08:17:33.823Z,22.98
2024-03-26T08:18:37.115Z,22.98
2024-03-26T08:19:40.358Z,22.97
2024-03-26T08:20:43.603Z,22.97
2024-03-26T08:21:48.835Z,22.97
2024-03-26T08:22:51.951Z,22.98
2024-03-26T08:23:55.356Z,22.98
2024-03-26T08:24:58.856Z,22.97
2024-03-26T08:26:02.064Z,22.97
2024-03-26T08:27:05.427Z,22.97
2024-03-26T08:28:08.714Z,22.97
2024-03-26T08:29:11.923Z,22.97
2024-03-26T08:30:15.287Z,22.97
2024-03-26T08:31:18.529Z,22.96
2024-03-26T08:32:27.711Z,22.96
2024-03-26T08:33:32.849Z,23
2024-03-26T08:34:36.089Z,23.01
2024-03-26T08:35:41.494Z,23.01
2024-03-26T08:36:44.739Z,23.01
2024-03-26T08:37:47.989Z,23
2024-03-26T08:38:51.217Z,22.99
2024-03-26T08:39:55.892Z,22.98
2024-03-26T08:40:59.092Z,22.99
2024-03-26T08:42:02.316Z,22.98
2024-03-26T08:43:05.580Z,22.97
2024-03-26T08:44:08.746Z,22.97
2024-03-26T08:45:12.575Z,22.97
2024-03-26T08:46:17.395Z,22.98
2024-03-26T08:47:22.622Z,22.98
2024-03-26T08:48:25.840Z,22.99
2024-03-26T08:49:29.122Z,22.99
2024-03-26T08:50:32.376Z,22.97
2024-03-26T08:51:35.794Z,22.97
2024-03-26T08:52:39.022Z,22.97
2024-03-26T08:53:42.392Z,22.97
2024-03-26T08:54:45.628Z,22.97
2024-03-26T08:55:48.868Z,22.97
2024-03-26T08:56:54.010Z,22.96
2024-03-26T08:57:57.271Z,22.97
2024-03-26T08:59:00.519Z,22.98
2024-03-26T09:00:03.725Z,22.97
2024-03-26T09:01:06.940Z,22.97
2024-03-26T09:02:10.095Z,22.97
2024-03-26T09:03:14.726Z,22.96
2024-03-26T09:04:17.874Z,22.97
2024-03-26T09:05:21.102Z,22.97
2024-03-26T09:06:24.355Z,22.97
2024-03-26T09:07:27.619Z,22.96
2024-03-26T09:08:30.829Z,22.97
2024-03-26T09:09:35.562Z,22.96
2024-03-26T09:10:38.734Z,22.96
2024-03-26T09:11:42.000Z,22.97
2024-03-26T09:12:47.191Z,22.97
2024-03-26T09:13:50.288Z,22.97
2024-03-26T09:14:53.504Z,22.97
2024-03-26T09:15:56.786Z,22.97
2024-03-26T09:17:00.038Z,22.96
2024-03-26T09:18:03.231Z,22.95
2024-03-26T09:19:06.587Z,22.96
2024-03-26T09:20:11.742Z,22.96
2024-03-26T09:21:14.842Z,22.97
2024-03-26T09:22:18.083Z,22.97
2024-03-26T09:23:21.296Z,22.96
2024-03-26T09:24:28.517Z,22.96
2024-03-26T09:25:42.415Z,23.05
2024-03-26T09:26:45.677Z,23.05
2024-03-26T09:27:50.434Z,23.03
2024-03-26T09:28:53.560Z,23.02
2024-03-26T09:29:56.726Z,23.01
2024-03-26T09:31:00.016Z,23
2024-03-26T09:32:03.259Z,22.99
2024-03-26T09:33:06.527Z,22.97
2024-03-26T09:34:09.729Z,22.96
2024-03-26T09:35:13.034Z,22.96
2024-03-26T09:36:16.268Z,22.96
2024-03-26T09:37:19.566Z,22.95
2024-03-26T09:38:32.091Z,22.95
2024-03-26T09:39:40.705Z,23.04
2024-03-26T09:40:43.959Z,23.03
2024-03-26T09:41:47.226Z,23.03
2024-03-26T09:42:51.343Z,23.01
2024-03-26T09:43:54.450Z,23
2024-03-26T09:45:04.879Z,22.99
2024-03-26T09:46:09.298Z,23.04
2024-03-26T09:47:12.474Z,23.03
2024-03-26T09:48:15.598Z,23.02
2024-03-26T09:49:18.722Z,23
2024-03-26T09:50:21.934Z,22.99
2024-03-26T09:51:25.211Z,22.98
2024-03-26T09:52:28.388Z,22.98
2024-03-26T09:53:31.595Z,22.97
2024-03-26T09:54:34.843Z,22.96
2024-03-26T09:55:38.183Z,22.95
2024-03-26T09:56:41.460Z,22.95
2024-03-26T09:57:44.643Z,22.95
2024-03-26T09:58:48.847Z,22.95
2024-03-26T09:59:52.067Z,22.96
2024-03-26T10:00:55.229Z,22.95
2024-03-26T10:01:58.489Z,22.95
2024-03-26T10:03:01.728Z,22.94
2024-03-26T10:04:06.097Z,22.94
2024-03-26T10:05:09.294Z,22.95
2024-03-26T10:06:12.519Z,22.94
2024-03-26T10:07:15.711Z,22.95
2024-03-26T10:08:18.952Z,22.95
2024-03-26T10:09:22.247Z,22.95
2024-03-26T10:10:25.421Z,22.94
2024-03-26T10:11:28.649Z,22.94
2024-03-26T10:12:31.913Z,22.94
2024-03-26T10:13:35.288Z,22.94
2024-03-26T10:14:38.596Z,22.94
2024-03-26T10:15:41.835Z,22.94
2024-03-26T10:16:44.996Z,22.94
2024-03-26T10:17:48.246Z,22.94
2024-03-26T10:18:51.336Z,22.94
2024-03-26T10:19:54.572Z,22.94
2024-03-26T10:20:57.867Z,22.94
2024-03-26T10:22:01.854Z,22.94
2024-03-26T10:23:06.952Z,22.95
2024-03-26T10:24:11.674Z,22.95
2024-03-26T10:25:14.868Z,22.95
2024-03-26T10:26:18.010Z,22.95
2024-03-26T10:27:21.307Z,22.95
2024-03-26T10:28:24.503Z,22.95
2024-03-26T10:29:27.673Z,22.94
2024-03-26T10:30:30.904Z,22.94
2024-03-26T10:31:34.145Z,22.94
2024-03-26T10:32:37.361Z,22.94
2024-03-26T10:33:40.951Z,22.94
2024-03-26T10:34:44.148Z,22.94
2024-03-26T10:35:49.388Z,22.93
2024-03-26T10:36:52.454Z,22.95
2024-03-26T10:37:58.986Z,22.95
2024-03-26T10:39:08.542Z,23.02
2024-03-26T10:40:11.721Z,23.01
2024-03-26T10:41:16.915Z,22.99
2024-03-26T10:42:20.097Z,23
2024-03-26T10:43:23.349Z,22.99
2024-03-26T10:44:26.631Z,22.98
2024-03-26T10:45:37.357Z,22.97
2024-03-26T10:46:49.352Z,23.07
2024-03-26T10:47:54.700Z,23.06
2024-03-26T10:49:01.356Z,23.06
2024-03-26T10:50:04.946Z,23.06
2024-03-26T10:51:08.127Z,23.05
2024-03-26T10:52:13.344Z,23.03
2024-03-26T10:53:17.786Z,23.03
2024-03-26T10:54:25.589Z,23.04
2024-03-26T10:55:28.858Z,23.04
2024-03-26T10:56:32.054Z,23.02
2024-03-26T10:57:37.393Z,23.01
2024-03-26T10:58:40.640Z,23
2024-03-26T10:59:43.877Z,22.99
2024-03-26T11:00:47.117Z,22.99
2024-03-26T11:01:50.303Z,22.98
2024-03-26T11:02:53.532Z,22.97
2024-03-26T11:03:56.732Z,22.97
2024-03-26T11:04:59.980Z,22.97
2024-03-26T11:06:05.276Z,22.97
2024-03-26T11:07:08.489Z,22.97
2024-03-26T11:08:11.900Z,22.97
2024-03-26T11:09:16.599Z,22.98
2024-03-26T11:10:20.175Z,22.98
2024-03-26T11:11:23.563Z,22.98
2024-03-26T11:12:26.762Z,22.97
2024-03-26T11:13:30.002Z,22.97
2024-03-26T11:14:33.251Z,22.97
2024-03-26T11:15:36.440Z,22.96
2024-03-26T11:16:39.631Z,22.96
2024-03-26T11:17:42.899Z,22.95
2024-03-26T11:18:47.598Z,22.95
2024-03-26T11:19:52.206Z,22.96
2024-03-26T11:20:55.327Z,22.97
2024-03-26T11:21:58.515Z,22.96
2024-03-26T11:23:01.726Z,22.96
2024-03-26T11:24:07.554Z,22.98
2024-03-26T11:25:10.789Z,22.98
2024-03-26T11:26:13.985Z,22.97
2024-03-26T11:27:18.202Z,22.97
2024-03-26T11:28:21.354Z,22.97
2024-03-26T11:29:24.855Z,22.97
2024-03-26T11:30:28.169Z,22.96
2024-03-26T11:31:31.480Z,22.96
2024-03-26T11:32:36.673Z,22.96
2024-03-26T11:33:39.905Z,22.97
2024-03-26T11:34:43.172Z,22.97
2024-03-26T11:35:46.433Z,22.97
2024-03-26T11:36:50.705Z,22.96
2024-03-26T11:37:53.889Z,22.97
2024-03-26T11:38:57.134Z,22.97
2024-03-26T11:40:01.857Z,22.97
2024-03-26T11:41:06.861Z,22.97
2024-03-26T11:42:11.160Z,22.99
2024-03-26T11:43:14.381Z,22.99
2024-03-26T11:44:17.569Z,22.98
2024-03-26T11:45:20.762Z,22.98
2024-03-26T11:46:23.955Z,22.98
2024-03-26T11:47:27.194Z,22.98
2024-03-26T11:48:32.622Z,22.97
2024-03-26T11:49:35.757Z,22.98
2024-03-26T11:50:39.024Z,22.98
2024-03-26T11:51:44.370Z,22.98
2024-03-26T11:52:47.580Z,22.99
2024-03-26T11:53:50.714Z,22.98
2024-03-26T11:54:53.831Z,22.97
2024-03-26T11:55:57.098Z,22.97
2024-03-26T11:57:00.363Z,22.97
2024-03-26T11:58:03.619Z,22.97
2024-03-26T11:59:06.831Z,22.97
2024-03-26T12:00:09.950Z,22.96
2024-03-26T12:01:14.688Z,22.97
2024-03-26T12:02:17.916Z,22.97
2024-03-26T12:03:21.186Z,22.98
2024-03-26T12:04:24.472Z,22.97
2024-03-26T12:05:27.748Z,22.97
2024-03-26T12:06:30.987Z,22.97
2024-03-26T12:07:34.195Z,22.96
2024-03-26T12:08:37.451Z,22.96
2024-03-26T12:09:43.168Z,22.96
2024-03-26T12:10:47.379Z,22.99
2024-03-26T12:11:50.570Z,22.99
2024-03-26T12:12:53.708Z,22.99
2024-03-26T12:13:56.881Z,22.98
2024-03-26T12:15:00.114Z,22.98
2024-03-26T12:16:03.442Z,22.97
2024-03-26T12:17:08.686Z,22.97
2024-03-26T12:18:11.799Z,22.98
2024-03-26T12:19:15.078Z,22.98
2024-03-26T12:20:18.253Z,22.98
2024-03-26T12:21:21.432Z,22.98
2024-03-26T12:22:24.589Z,22.98
2024-03-26T12:23:27.768Z,22.97
2024-03-26T12:24:31.042Z,22.97
2024-03-26T12:25:35.812Z,22.97
2024-03-26T12:26:39.013Z,22.98
2024-03-26T12:27:45.144Z,22.98
2024-03-26T12:28:49.763Z,23.01
2024-03-26T12:29:52.920Z,23
2024-03-26T12:30:56.162Z,22.99
2024-03-26T12:32:05.386Z,22.99
2024-03-26T12:33:09.953Z,23.02
2024-03-26T12:34:13.166Z,23.03
2024-03-26T12:35:16.419Z,23.01
2024-03-26T12:36:21.137Z,23.01
2024-03-26T12:37:24.377Z,23.01
2024-03-26T12:38:27.621Z,23
2024-03-26T12:39:32.325Z,23
2024-03-26T12:40:35.564Z,23
2024-03-26T12:41:38.826Z,23
2024-03-26T12:42:44.054Z,22.99
2024-03-26T12:43:47.390Z,23
2024-03-26T12:44:52.539Z,22.99
2024-03-26T12:45:55.677Z,23.01
2024-03-26T12:46:58.843Z,23
2024-03-26T12:48:04.101Z,22.99
2024-03-26T12:49:07.345Z,23
2024-03-26T12:50:10.609Z,23
2024-03-26T12:51:15.808Z,22.99
2024-03-26T12:52:18.935Z,23
2024-03-26T12:53:22.339Z,23
2024-03-26T12:54:25.581Z,22.99
2024-03-26T12:55:28.730Z,22.99
2024-03-26T12:56:32.035Z,22.98
2024-03-26T12:57:35.193Z,22.98
2024-03-26T12:58:38.464Z,22.98
2024-03-26T12:59:43.730Z,22.97
2024-03-26T13:00:48.848Z,22.98
2024-03-26T13:01:54.127Z,23
2024-03-26T13:02:57.698Z,23.01
2024-03-26T13:04:01.023Z,23.01
2024-03-26T13:05:04.223Z,23
2024-03-26T13:06:07.477Z,22.99
2024-03-26T13:07:10.855Z,22.99
2024-03-26T13:08:14.130Z,22.98
2024-03-26T13:09:17.343Z,22.99
2024-03-26T13:10:22.632Z,22.98
2024-03-26T13:11:25.855Z,22.99
2024-03-26T13:12:29.175Z,22.99
2024-03-26T13:13:32.432Z,22.99
2024-03-26T13:14:37.723Z,22.99
2024-03-26T13:15:40.910Z,22.99
2024-03-26T13:16:44.136Z,22.99
2024-03-26T13:17:47.472Z,22.98
2024-03-26T13:18:50.674Z,22.99
2024-03-26T13:19:56.138Z,22.98
2024-03-26T13:21:04.424Z,23.01
2024-03-26T13:22:07.633Z,23.02
2024-03-26T13:23:10.840Z,23.02
2024-03-26T13:24:14.115Z,23.01
2024-03-26T13:25:19.294Z,23.01
2024-03-26T13:26:22.452Z,23.01
2024-03-26T13:27:27.823Z,23.01
2024-03-26T13:28:31.079Z,23.01
2024-03-26T13:29:34.260Z,23.01
2024-03-26T13:30:40.734Z,23
2024-03-26T13:31:48.610Z,23.05
2024-03-26T13:32:51.690Z,23.04
2024-03-26T13:33:54.804Z,23.03
2024-03-26T13:34:57.985Z,23.02
2024-03-26T13:36:04.984Z,23.01
2024-03-26T13:37:08.825Z,23.03
2024-03-26T13:38:12.048Z,23.03
2024-03-26T13:39:20.930Z,23.02
2024-03-26T13:40:34.385Z,23.05
2024-03-26T13:41:41.900Z,23.14
2024-03-26T13:42:45.130Z,23.12
2024-03-26T13:43:51.217Z,23.1
2024-03-26T13:44:58.421Z,23.12
2024-03-26T13:46:01.976Z,23.1